Observation data for Reese Center on 11/05/2019      Previous  Date       Current Mesonet Observations  Soil Data  Daily Summary Page  Observations in Plain Language
KREE 050600Z 08007KT 07/02 A3014 RMK A01 T00710020  RH  071%=      5-min Rain = 0
KREE 050605Z 07006KT 07/02 A3014 RMK A01 T00680018  RH  071%=      5-min Rain = 0
KREE 050610Z 08007KT 07/02 A3014 RMK A01 T00650017  RH  073%=      5-min Rain = 0
KREE 050615Z 08007KT 06/02 A3014 RMK A01 T00610016  RH  074%=      5-min Rain = 0
KREE 050620Z 07006KT 06/02 A3014 RMK A01 T00600017  RH  075%=      5-min Rain = 0
KREE 050625Z 06006KT 06/02 A3015 RMK A01 T00630019  RH  074%=      5-min Rain = 0
KREE 050630Z 07006KT 06/02 A3015 RMK A01 T00590015  RH  074%=      5-min Rain = 0
KREE 050635Z 07006KT 06/02 A3015 RMK A01 T00590017  RH  075%=      5-min Rain = 0
KREE 050640Z 07006KT 06/01 A3015 RMK A01 T00560014  RH  075%=      5-min Rain = 0
KREE 050645Z 06006KT 06/02 A3015 RMK A01 T00580018  RH  076%=      5-min Rain = 0
KREE 050650Z 05006KT 06/01 A3015 RMK A01 T00550013  RH  075%=      5-min Rain = 0
KREE 050655Z 06006KT 06/02 A3015 RMK A01 T00590019  RH  076%=      5-min Rain = 0
KREE 050700Z 06005KT 06/02 A3015 RMK A01 T00600018  RH  075%=      5-min Rain = 0
KREE 050705Z 08006KT 05/01 A3015 RMK A01 T00520011  RH  076%=      5-min Rain = 0
KREE 050710Z 07007KT 05/01 A3015 RMK A01 T00480011  RH  078%=      5-min Rain = 0
KREE 050715Z 06006KT 05/01 A3016 RMK A01 T00500014  RH  078%=      5-min Rain = 0
KREE 050720Z 04005KT 04/00 A3017 RMK A01 T00380002  RH  078%=      5-min Rain = 0
KREE 050725Z 05004KT 04/01 A3017 RMK A01 T00360006  RH  081%=      5-min Rain = 0
KREE 050730Z 07004KT 04/02 A3017 RMK A01 T00430015  RH  083%=      5-min Rain = 0
KREE 050735Z 08005KT 05/01 A3017 RMK A01 T00450011  RH  080%=      5-min Rain = 0
KREE 050740Z 05006KT 04/01 A3018 RMK A01 T00430009  RH  079%=      5-min Rain = 0
KREE 050745Z 04006KT 04/00 A3018 RMK A01 T00360004  RH  081%=      5-min Rain = 0
KREE 050750Z 03006KT 03/00 A3018 RMK A01 T00310002  RH  082%=      5-min Rain = 0
KREE 050755Z 03007KT 03/00 A3018 RMK A01 T00280002  RH  084%=      5-min Rain = 0
KREE 050800Z 01007KT 03/00 A3019 RMK A01 T00270002  RH  085%=      5-min Rain = 0
KREE 050805Z 01007KT 03/00 A3018 RMK A01 T00270002  RH  085%=      5-min Rain = 0
KREE 050810Z 00007KT 03/00 A3018 RMK A01 T00280002  RH  084%=      5-min Rain = 0
KREE 050815Z 01007KT 03/01 A3018 RMK A01 T00300005  RH  085%=      5-min Rain = 0
KREE 050820Z 01007KT 03/00 A3019 RMK A01 T00280002  RH  083%=      5-min Rain = 0
KREE 050825Z 01007KT 03/00 A3018 RMK A01 T00280002  RH  084%=      5-min Rain = 0
KREE 050830Z 00008KT 03/00 A3019 RMK A01 T00270001  RH  084%=      5-min Rain = 0
KREE 050835Z 36008KT 03/00 A3018 RMK A01 T00270001  RH  084%=      5-min Rain = 0
KREE 050840Z 35008KT 02/M00 A3018 RMK A01 T00241002  RH  084%=      5-min Rain = 0
KREE 050845Z 35009KT 02/M00 A3018 RMK A01 T00221003  RH  085%=      5-min Rain = 0
KREE 050850Z 36009KT 02/M00 A3018 RMK A01 T00201003  RH  085%=      5-min Rain = 0
KREE 050855Z 36008KT 02/M00 A3019 RMK A01 T00221001  RH  086%=      5-min Rain = 0
KREE 050900Z 36008KT 02/M00 A3019 RMK A01 T00221001  RH  086%=      5-min Rain = 0
KREE 050905Z 36008KT 02/00 A3019 RMK A01 T00230000  RH  086%=      5-min Rain = 0
KREE 050910Z 36008KT 02/00 A3019 RMK A01 T002300-0  RH  086%=      5-min Rain = 0
KREE 050915Z 36008KT 02/M00 A3019 RMK A01 T00201003  RH  086%=      5-min Rain = 0
KREE 050920Z 36007KT 02/M00 A3019 RMK A01 T00191003  RH  086%=      5-min Rain = 0
KREE 050925Z 00007KT 02/M00 A3019 RMK A01 T00181004  RH  086%=      5-min Rain = 0
KREE 050930Z 00007KT 02/M00 A3019 RMK A01 T00191002  RH  087%=      5-min Rain = 0
KREE 050935Z 00007KT 02/M00 A3019 RMK A01 T00191001  RH  087%=      5-min Rain = 0
KREE 050940Z 00008KT 02/00 A3019 RMK A01 T002000-0  RH  088%=      5-min Rain = 0
KREE 050945Z 00008KT 02/00 A3019 RMK A01 T00200000  RH  088%=      5-min Rain = 0
KREE 050950Z 00008KT 02/00 A3019 RMK A01 T001900-0  RH  088%=      5-min Rain = 0
KREE 050955Z 00007KT 02/M00 A3019 RMK A01 T00181002  RH  088%=      5-min Rain = 0
KREE 051000Z 00007KT 02/M00 A302 RMK A01 T00161003  RH  088%=      5-min Rain = 0
KREE 051005Z 00008KT 01/M01 A302 RMK A01 T00131007  RH  088%=      5-min Rain = 0
KREE 051010Z 00007KT 01/M01 A302 RMK A01 T00121007  RH  088%=      5-min Rain = 0
KREE 051015Z 00008KT 01/M01 A302 RMK A01 T00131005  RH  089%=      5-min Rain = 0
KREE 051020Z 00008KT 02/M00 A302 RMK A01 T00151004  RH  089%=      5-min Rain = 0
KREE 051025Z 00008KT 02/M00 A302 RMK A01 T00151004  RH  088%=      5-min Rain = 0
KREE 051030Z 00008KT 02/M00 A302 RMK A01 T00151004  RH  088%=      5-min Rain = 0
KREE 051035Z 00008KT 02/M00 A302 RMK A01 T00151003  RH  088%=      5-min Rain = 0
KREE 051040Z 00009KT 02/M00 A302 RMK A01 T00151004  RH  088%=      5-min Rain = 0
KREE 051045Z 00008KT 01/M01 A3021 RMK A01 T00141005  RH  088%=      5-min Rain = 0
KREE 051050Z 00008KT 01/M00 A3021 RMK A01 T00141004  RH  089%=      5-min Rain = 0
KREE 051055Z 01007KT 01/M01 A3021 RMK A01 T00141005  RH  088%=      5-min Rain = 0
KREE 051100Z 01007KT 01/M01 A3021 RMK A01 T00121007  RH  088%=      5-min Rain = 0
KREE 051105Z 01008KT 01/M01 A3021 RMK A01 T00101008  RH  088%=      5-min Rain = 0
KREE 051110Z 01008KT 01/M01 A3021 RMK A01 T00091009  RH  089%=      5-min Rain = 0
KREE 051115Z 01008KT 01/M01 A3021 RMK A01 T00101008  RH  089%=      5-min Rain = 0
KREE 051120Z 01008KT 01/M01 A3022 RMK A01 T00101008  RH  089%=      5-min Rain = 0
KREE 051125Z 01007KT 01/M01 A3022 RMK A01 T00111007  RH  089%=      5-min Rain = 0
KREE 051130Z 01007KT 01/M01 A3022 RMK A01 T00121007  RH  088%=      5-min Rain = 0
KREE 051135Z 01007KT 01/M01 A3022 RMK A01 T00101008  RH  088%=      5-min Rain = 0
KREE 051140Z 01007KT 01/M01 A3022 RMK A01 T00091010  RH  089%=      5-min Rain = 0
KREE 051145Z 01007KT 01/M01 A3023 RMK A01 T00091009  RH  089%=      5-min Rain = 0
KREE 051150Z 00007KT 01/M01 A3023 RMK A01 T00091008  RH  089%=      5-min Rain = 0
KREE 051155Z 01007KT 01/M01 A3023 RMK A01 T00091009  RH  089%=      5-min Rain = 0
KREE 051200Z 01007KT 01/M01 A3023 RMK A01 T00081010  RH  089%=      5-min Rain = 0
KREE 051205Z 01007KT 01/M01 A3023 RMK A01 T00071011  RH  089%=      5-min Rain = 0
KREE 051210Z 01007KT 01/M01 A3023 RMK A01 T00071011  RH  089%=      5-min Rain = 0
KREE 051215Z 01007KT 01/M01 A3023 RMK A01 T00061012  RH  089%=      5-min Rain = 0
KREE 051220Z 01007KT 01/M01 A3023 RMK A01 T00061012  RH  089%=      5-min Rain = 0
KREE 051225Z 01008KT 00/M01 A3023 RMK A01 T00041014  RH  089%=      5-min Rain = 0
KREE 051230Z 00007KT 01/M01 A3024 RMK A01 T00051012  RH  089%=      5-min Rain = 0
KREE 051235Z 00007KT 01/M01 A3024 RMK A01 T00061012  RH  089%=      5-min Rain = 0
KREE 051240Z 36006KT 00/M01 A3024 RMK A01 T00041014  RH  089%=      5-min Rain = 0
KREE 051245Z 34006KT 00/M02 A3025 RMK A01 T00021016  RH  089%=      5-min Rain = 0
KREE 051250Z 32007KT 00/M01 A3026 RMK A01 T00041013  RH  089%=      5-min Rain = 0
KREE 051255Z 33007KT 01/M01 A3026 RMK A01 T00061012  RH  089%=      5-min Rain = 0
KREE 051300Z 34007KT 01/M01 A3026 RMK A01 T00071011  RH  089%=      5-min Rain = 0
KREE 051305Z 34007KT 01/M01 A3026 RMK A01 T00081011  RH  088%=      5-min Rain = 0
KREE 051310Z 34006KT 01/M01 A3026 RMK A01 T00081011  RH  088%=      5-min Rain = 0
KREE 051315Z 35006KT 01/M01 A3026 RMK A01 T00061013  RH  088%=      5-min Rain = 0
KREE 051320Z 35006KT 01/M01 A3026 RMK A01 T00061014  RH  088%=      5-min Rain = 0
KREE 051325Z 36006KT 01/M01 A3026 RMK A01 T00061013  RH  088%=      5-min Rain = 0
KREE 051330Z 35007KT 01/M01 A3027 RMK A01 T00061013  RH  088%=      5-min Rain = 0
KREE 051335Z 36007KT 01/M01 A3027 RMK A01 T00071012  RH  088%=      5-min Rain = 0
KREE 051340Z 36006KT 01/M01 A3027 RMK A01 T00091011  RH  088%=      5-min Rain = 0
KREE 051345Z 00006KT 01/M01 A3027 RMK A01 T00131008  RH  087%=      5-min Rain = 0
KREE 051350Z 01005KT 02/M01 A3027 RMK A01 T00171005  RH  086%=      5-min Rain = 0
KREE 051355Z 00005KT 02/M00 A3027 RMK A01 T00211003  RH  085%=      5-min Rain = 0
KREE 051400Z 01006KT 02/M00 A3028 RMK A01 T00241002  RH  084%=      5-min Rain = 0
KREE 051405Z 01006KT 03/M00 A3028 RMK A01 T00261001  RH  083%=      5-min Rain = 0
KREE 051410Z 01007KT 03/M00 A3028 RMK A01 T00261002  RH  083%=      5-min Rain = 0
KREE 051415Z 02006KT 03/00 A3028 RMK A01 T00300001  RH  082%=      5-min Rain = 0
KREE 051420Z 01007KT 03/00 A3028 RMK A01 T00330001  RH  080%=      5-min Rain = 0
KREE 051425Z 02007KT 04/00 A3028 RMK A01 T00360002  RH  079%=      5-min Rain = 0
KREE 051430Z 02007KT 04/00 A3029 RMK A01 T00390002  RH  078%=      5-min Rain = 0
KREE 051435Z 02008KT 04/00 A3028 RMK A01 T00430004  RH  077%=      5-min Rain = 0
KREE 051440Z 02007KT 05/01 A3029 RMK A01 T00480007  RH  076%=      5-min Rain = 0
KREE 051445Z 02008KT 05/01 A3029 RMK A01 T00520009  RH  075%=      5-min Rain = 0
KREE 051450Z 02007KT 06/01 A3029 RMK A01 T00550009  RH  073%=      5-min Rain = 0
KREE 051455Z 02008KT 06/01 A3029 RMK A01 T00570009  RH  072%=      5-min Rain = 0
KREE 051500Z 04010KT 06/01 A3029 RMK A01 T00580011  RH  072%=      5-min Rain = 0
KREE 051505Z 04008KT 06/01 A3029 RMK A01 T00610012  RH  072%=      5-min Rain = 0
KREE 051510Z 04009KT 06/01 A3029 RMK A01 T00610013  RH  072%=      5-min Rain = 0
KREE 051515Z 04009KT 06/01 A3029 RMK A01 T00640014  RH  071%=      5-min Rain = 0
KREE 051520Z 04008KT 07/02 A3029 RMK A01 T00660016  RH  071%=      5-min Rain = 0
KREE 051525Z 05009KT 07/02 A3029 RMK A01 T00700020  RH  071%=      5-min Rain = 0
KREE 051530Z 04009KT 07/02 A3029 RMK A01 T00720021  RH  071%=      5-min Rain = 0
KREE 051535Z 06009KT 08/02 A3029 RMK A01 T00760024  RH  071%=      5-min Rain = 0
KREE 051540Z 05009KT 08/02 A3029 RMK A01 T00760023  RH  070%=      5-min Rain = 0
KREE 051545Z 04008KT 08/02 A3029 RMK A01 T00780023  RH  069%=      5-min Rain = 0
KREE 051550Z 05008KT 08/02 A3029 RMK A01 T00810024  RH  068%=      5-min Rain = 0
KREE 051555Z 05007KT 09/02 A3029 RMK A01 T00850023  RH  066%=      5-min Rain = 0
KREE 051600Z 05007KT 09/03 A3029 RMK A01 T00910026  RH  064%=      5-min Rain = 0
KREE 051605Z 04007KT 09/03 A3029 RMK A01 T00920026  RH  064%=      5-min Rain = 0
KREE 051610Z 04006KT 09/03 A3029 RMK A01 T00910026  RH  065%=      5-min Rain = 0
KREE 051615Z 04007KT 09/03 A3029 RMK A01 T00940029  RH  065%=      5-min Rain = 0
KREE 051620Z 03006KT 10/03 A3029 RMK A01 T00970031  RH  064%=      5-min Rain = 0
KREE 051625Z 05006KT 10/03 A3029 RMK A01 T00970032  RH  065%=      5-min Rain = 0
KREE 051630Z 05007KT 10/04 A3029 RMK A01 T00950035  RH  067%=      5-min Rain = 0
KREE 051635Z 04006KT 10/04 A3029 RMK A01 T00970037  RH  067%=      5-min Rain = 0
KREE 051640Z 05006KT 10/04 A3029 RMK A01 T00980038  RH  067%=      5-min Rain = 0
KREE 051645Z 03005KT 10/04 A3029 RMK A01 T01000038  RH  066%=      5-min Rain = 0
KREE 051650Z 04006KT 10/04 A3029 RMK A01 T01030040  RH  066%=      5-min Rain = 0
KREE 051655Z 03005KT 10/04 A3029 RMK A01 T01040042  RH  066%=      5-min Rain = 0
KREE 051700Z 04005KT 11/04 A3029 RMK A01 T01060043  RH  066%=      5-min Rain = 0
KREE 051705Z 03005KT 11/05 A3029 RMK A01 T01100046  RH  065%=      5-min Rain = 0
KREE 051710Z 04005KT 12/05 A3029 RMK A01 T01150047  RH  064%=      5-min Rain = 0
KREE 051715Z 05005KT 11/05 A3029 RMK A01 T01130048  RH  065%=      5-min Rain = 0
KREE 051720Z 05004G9KT 12/05 A3029 RMK A01 T01160049  RH  064%=      5-min Rain = 0
KREE 051725Z 04004KT 12/05 A3029 RMK A01 T01200049  RH  063%=      5-min Rain = 0
KREE 051730Z 06003KT 12/05 A3028 RMK A01 T01200050  RH  063%=      5-min Rain = 0
KREE 051735Z 07004KT 12/05 A3028 RMK A01 T01220050  RH  062%=      5-min Rain = 0
KREE 051740Z 09004KT 12/05 A3028 RMK A01 T01230052  RH  063%=      5-min Rain = 0
KREE 051745Z 09003KT 12/05 A3028 RMK A01 T01230052  RH  063%=      5-min Rain = 0
KREE 051750Z 07004KT 13/06 A3027 RMK A01 T01290055  RH  061%=      5-min Rain = 0
KREE 051755Z 07004KT 13/06 A3027 RMK A01 T01320056  RH  061%=      5-min Rain = 0
KREE 051800Z 11006KT 13/06 A3027 RMK A01 T01300059  RH  063%=      5-min Rain = 0
KREE 051805Z 15004KT 13/06 A3027 RMK A01 T01330056  RH  060%=      5-min Rain = 0
KREE 051810Z 07003KT 14/06 A3026 RMK A01 T01380058  RH  059%=      5-min Rain = 0
KREE 051815Z 10003KT 14/06 A3026 RMK A01 T01360058  RH  060%=      5-min Rain = 0
KREE 051820Z 11002KT 14/06 A3026 RMK A01 T01400059  RH  059%=      5-min Rain = 0
KREE 051825Z 13003KT 15/06 A3025 RMK A01 T01450060  RH  057%=      5-min Rain = 0
KREE 051830Z 13004KT 15/06 A3025 RMK A01 T01450061  RH  058%=      5-min Rain = 0
KREE 051835Z 08004KT 14/06 A3025 RMK A01 T01440060  RH  058%=      5-min Rain = 0
KREE 051840Z 36001KT 14/06 A3024 RMK A01 T01440059  RH  057%=      5-min Rain = 0
KREE 051845Z 11003KT 15/06 A3024 RMK A01 T01470060  RH  057%=      5-min Rain = 0
KREE 051850Z 14002KT 15/06 A3024 RMK A01 T01500060  RH  055%=      5-min Rain = 0
KREE 051855Z 21002KT 15/06 A3024 RMK A01 T01530060  RH  054%=      5-min Rain = 0
KREE 051900Z 13003KT 15/06 A3023 RMK A01 T01500060  RH  055%=      5-min Rain = 0
KREE 051905Z 13004KT 15/06 A3023 RMK A01 T01520058  RH  054%=      5-min Rain = 0
KREE 051910Z 18002KT 16/06 A3023 RMK A01 T01560058  RH  053%=      5-min Rain = 0
KREE 051915Z 11002KT 16/06 A3022 RMK A01 T01550056  RH  052%=      5-min Rain = 0
KREE 051920Z 15002KT 16/06 A3022 RMK A01 T01600057  RH  051%=      5-min Rain = 0
KREE 051925Z 13002KT 16/06 A3022 RMK A01 T01590056  RH  051%=      5-min Rain = 0
KREE 051930Z 08003KT 16/06 A3022 RMK A01 T01600057  RH  051%=      5-min Rain = 0
KREE 051935Z 10005KT 16/06 A3021 RMK A01 T01600055  RH  050%=      5-min Rain = 0
KREE 051940Z 15003KT 16/06 A3021 RMK A01 T01620055  RH  049%=      5-min Rain = 0
KREE 051945Z 15002KT 17/06 A3021 RMK A01 T01650055  RH  049%=      5-min Rain = 0
KREE 051950Z 16003KT 17/06 A3021 RMK A01 T01700055  RH  047%=      5-min Rain = 0
KREE 051955Z 07001KT 17/05 A3021 RMK A01 T01670052  RH  047%=      5-min Rain = 0
KREE 052000Z 14003KT 17/05 A3021 RMK A01 T01680052  RH  047%=      5-min Rain = 0
KREE 052005Z 13004KT 17/05 A302 RMK A01 T01710054  RH  047%=      5-min Rain = 0
KREE 052010Z 11002KT 17/05 A302 RMK A01 T01690053  RH  047%=      5-min Rain = 0
KREE 052015Z 12004KT 17/05 A302 RMK A01 T01740054  RH  046%=      5-min Rain = 0
KREE 052020Z 12002KT 17/05 A302 RMK A01 T01720053  RH  046%=      5-min Rain = 0
KREE 052025Z 12003KT 18/05 A302 RMK A01 T01760052  RH  045%=      5-min Rain = 0
KREE 052030Z 10004KT 17/05 A302 RMK A01 T01740053  RH  045%=      5-min Rain = 0
KREE 052035Z 08001KT 18/05 A302 RMK A01 T01780052  RH  044%=      5-min Rain = 0
KREE 052040Z 16003KT 18/05 A302 RMK A01 T01820053  RH  043%=      5-min Rain = 0
KREE 052045Z 18003KT 18/05 A3019 RMK A01 T01820051  RH  043%=      5-min Rain = 0
KREE 052050Z 16003KT 18/05 A3019 RMK A01 T01810050  RH  043%=      5-min Rain = 0
KREE 052055Z 10003KT 18/05 A3019 RMK A01 T01780052  RH  044%=      5-min Rain = 0
KREE 052100Z 14003KT 18/05 A3019 RMK A01 T01790051  RH  043%=      5-min Rain = 0
KREE 052105Z 14005KT 18/05 A3019 RMK A01 T01810050  RH  043%=      5-min Rain = 0
KREE 052110Z 13003KT 18/05 A3019 RMK A01 T01810051  RH  043%=      5-min Rain = 0
KREE 052115Z 17004KT 18/05 A3019 RMK A01 T01840051  RH  042%=      5-min Rain = 0
KREE 052120Z 17003KT 18/05 A3019 RMK A01 T01830051  RH  042%=      5-min Rain = 0
KREE 052125Z 15005KT 18/05 A3019 RMK A01 T01840054  RH  043%=      5-min Rain = 0
KREE 052130Z 17004KT 19/05 A3019 RMK A01 T01860054  RH  042%=      5-min Rain = 0
KREE 052135Z 17004KT 19/05 A3019 RMK A01 T01850052  RH  042%=      5-min Rain = 0
KREE 052140Z 15006KT 19/05 A3019 RMK A01 T01860054  RH  043%=      5-min Rain = 0
KREE 052145Z 15003KT 18/06 A3019 RMK A01 T01840056  RH  044%=      5-min Rain = 0
KREE 052150Z 17004KT 18/06 A3018 RMK A01 T01840055  RH  043%=      5-min Rain = 0
KREE 052155Z 14005KT 18/05 A3018 RMK A01 T01840053  RH  043%=      5-min Rain = 0
KREE 052200Z 14004KT 18/05 A3018 RMK A01 T01840052  RH  042%=      5-min Rain = 0
KREE 052205Z 16005KT 19/05 A3018 RMK A01 T01850053  RH  043%=      5-min Rain = 0
KREE 052210Z 17004KT 18/05 A3018 RMK A01 T01840052  RH  042%=      5-min Rain = 0
KREE 052215Z 17004KT 18/05 A3018 RMK A01 T01840051  RH  042%=      5-min Rain = 0
KREE 052220Z 15004KT 19/05 A3018 RMK A01 T01850051  RH  042%=      5-min Rain = 0
KREE 052225Z 16005KT 19/05 A3018 RMK A01 T01860050  RH  041%=      5-min Rain = 0
KREE 052230Z 15004KT 19/05 A3018 RMK A01 T01860051  RH  042%=      5-min Rain = 0
KREE 052235Z 13006KT 18/05 A3018 RMK A01 T01830052  RH  043%=      5-min Rain = 0
KREE 052240Z 13006KT 18/05 A3018 RMK A01 T01810052  RH  043%=      5-min Rain = 0
KREE 052245Z 12006KT 18/05 A3018 RMK A01 T01800052  RH  043%=      5-min Rain = 0
KREE 052250Z 13005KT 18/05 A3018 RMK A01 T01810053  RH  043%=      5-min Rain = 0
KREE 052255Z 13005KT 18/05 A3018 RMK A01 T01810052  RH  043%=      5-min Rain = 0
KREE 052300Z 14006KT 18/05 A3018 RMK A01 T01800053  RH  044%=      5-min Rain = 0
KREE 052305Z 14006KT 18/05 A3018 RMK A01 T01800052  RH  043%=      5-min Rain = 0
KREE 052310Z 13006KT 18/05 A3018 RMK A01 T01790052  RH  044%=      5-min Rain = 0
KREE 052315Z 15006KT 18/05 A3018 RMK A01 T01780051  RH  044%=      5-min Rain = 0
KREE 052320Z 16005KT 18/05 A3018 RMK A01 T01770052  RH  044%=      5-min Rain = 0
KREE 052325Z 15004KT 18/05 A3018 RMK A01 T01760052  RH  045%=      5-min Rain = 0
KREE 052330Z 14005KT 17/05 A3018 RMK A01 T01720051  RH  045%=      5-min Rain = 0
KREE 052335Z 15005KT 17/05 A3018 RMK A01 T01680049  RH  046%=      5-min Rain = 0
KREE 052340Z 15006KT 16/05 A3018 RMK A01 T01640050  RH  047%=      5-min Rain = 0
KREE 052345Z 15006KT 16/05 A3018 RMK A01 T01590050  RH  049%=      5-min Rain = 0
KREE 052350Z 14005KT 15/05 A3018 RMK A01 T01540049  RH  050%=      5-min Rain = 0
KREE 052355Z 14006KT 15/05 A3018 RMK A01 T01490049  RH  052%=      5-min Rain = 0
KREE 060000Z 13006KT 15/05 A3018 RMK A01 T01460050  RH  053%=      5-min Rain = 0
KREE 060005Z 13007KT 14/05 A3018 RMK A01 T01440052  RH  055%=      5-min Rain = 0
KREE 060010Z 14007KT 14/05 A3018 RMK A01 T01410051  RH  055%=      5-min Rain = 0
KREE 060015Z 14007KT 14/05 A3018 RMK A01 T01390052  RH  056%=      5-min Rain = 0
KREE 060020Z 14006KT 14/05 A3018 RMK A01 T01370052  RH  057%=      5-min Rain = 0
KREE 060025Z 13006KT 13/05 A3018 RMK A01 T01330050  RH  058%=      5-min Rain = 0
KREE 060030Z 13006KT 13/05 A3018 RMK A01 T01320051  RH  058%=      5-min Rain = 0
KREE 060035Z 13007KT 13/05 A3018 RMK A01 T01310051  RH  059%=      5-min Rain = 0
KREE 060040Z 13007KT 13/05 A3018 RMK A01 T01310052  RH  059%=      5-min Rain = 0
KREE 060045Z 13007KT 13/05 A3019 RMK A01 T01300051  RH  060%=      5-min Rain = 0
KREE 060050Z 13007KT 13/05 A3019 RMK A01 T01280052  RH  060%=      5-min Rain = 0
KREE 060055Z 13007KT 13/05 A3019 RMK A01 T01280052  RH  061%=      5-min Rain = 0
KREE 060100Z 14007KT 13/05 A3019 RMK A01 T01260052  RH  061%=      5-min Rain = 0
KREE 060105Z 14007KT 13/05 A3019 RMK A01 T01260053  RH  062%=      5-min Rain = 0
KREE 060110Z 14007KT 13/05 A3019 RMK A01 T01270054  RH  062%=      5-min Rain = 0
KREE 060115Z 13007KT 13/06 A3019 RMK A01 T01270055  RH  062%=      5-min Rain = 0
KREE 060120Z 13007KT 13/05 A3019 RMK A01 T01250054  RH  063%=      5-min Rain = 0
KREE 060125Z 13008KT 13/06 A3019 RMK A01 T01250056  RH  064%=      5-min Rain = 0
KREE 060130Z 13007KT 12/06 A302 RMK A01 T01240056  RH  064%=      5-min Rain = 0
KREE 060135Z 13007KT 12/06 A302 RMK A01 T01230057  RH  065%=      5-min Rain = 0
KREE 060140Z 13008KT 12/06 A302 RMK A01 T01230058  RH  066%=      5-min Rain = 0
KREE 060145Z 13008KT 12/06 A302 RMK A01 T01240060  RH  066%=      5-min Rain = 0
KREE 060150Z 13008KT 12/06 A302 RMK A01 T01230060  RH  066%=      5-min Rain = 0
KREE 060155Z 13008KT 12/06 A302 RMK A01 T01210060  RH  067%=      5-min Rain = 0
KREE 060200Z 14007KT 12/06 A302 RMK A01 T01190060  RH  068%=      5-min Rain = 0
KREE 060205Z 13007KT 12/06 A302 RMK A01 T01180061  RH  069%=      5-min Rain = 0
KREE 060210Z 14008KT 12/06 A302 RMK A01 T01180061  RH  069%=      5-min Rain = 0
KREE 060215Z 14007KT 12/06 A302 RMK A01 T01160061  RH  070%=      5-min Rain = 0
KREE 060220Z 14007KT 12/06 A3019 RMK A01 T01160062  RH  071%=      5-min Rain = 0
KREE 060225Z 14006KT 12/06 A3019 RMK A01 T01160062  RH  070%=      5-min Rain = 0
KREE 060230Z 14007KT 11/06 A3019 RMK A01 T01140062  RH  071%=      5-min Rain = 0
KREE 060235Z 13007KT 11/06 A3019 RMK A01 T01140063  RH  072%=      5-min Rain = 0
KREE 060240Z 13007KT 12/07 A3019 RMK A01 T01150065  RH  072%=      5-min Rain = 0
KREE 060245Z 14006KT 11/06 A3019 RMK A01 T01130063  RH  072%=      5-min Rain = 0
KREE 060250Z 14006KT 11/06 A3019 RMK A01 T01100062  RH  073%=      5-min Rain = 0
KREE 060255Z 14007KT 11/06 A3019 RMK A01 T01080062  RH  075%=      5-min Rain = 0
KREE 060300Z 14007KT 11/06 A3019 RMK A01 T01080064  RH  075%=      5-min Rain = 0
KREE 060305Z 15006KT 11/06 A3019 RMK A01 T01090064  RH  075%=      5-min Rain = 0
KREE 060310Z 15006KT 11/06 A3019 RMK A01 T01060063  RH  076%=      5-min Rain = 0
KREE 060315Z 15006KT 10/06 A3019 RMK A01 T01040063  RH  077%=      5-min Rain = 0
KREE 060320Z 15006KT 11/06 A3019 RMK A01 T01050064  RH  077%=      5-min Rain = 0
KREE 060325Z 15006KT 10/06 A302 RMK A01 T01040063  RH  077%=      5-min Rain = 0
KREE 060330Z 15006KT 10/06 A302 RMK A01 T00990060  RH  078%=      5-min Rain = 0
KREE 060335Z 15006KT 10/06 A302 RMK A01 T00960059  RH  079%=      5-min Rain = 0
KREE 060340Z 15006KT 09/06 A302 RMK A01 T00930057  RH  079%=      5-min Rain = 0
KREE 060345Z 16005KT 09/06 A302 RMK A01 T00890055  RH  080%=      5-min Rain = 0
KREE 060350Z 17005KT 09/06 A302 RMK A01 T00890057  RH  082%=      5-min Rain = 0
KREE 060355Z 16006KT 09/06 A302 RMK A01 T00900057  RH  081%=      5-min Rain = 0
KREE 060400Z 16006KT 09/06 A302 RMK A01 T00900057  RH  081%=      5-min Rain = 0
KREE 060405Z 16007KT 09/06 A302 RMK A01 T00890056  RH  081%=      5-min Rain = 0
KREE 060410Z 16006KT 09/05 A302 RMK A01 T00860054  RH  082%=      5-min Rain = 0
KREE 060415Z 16006KT 09/05 A302 RMK A01 T00860054  RH  082%=      5-min Rain = 0
KREE 060420Z 16006KT 09/06 A302 RMK A01 T00850055  RH  082%=      5-min Rain = 0
KREE 060425Z 15005KT 09/06 A302 RMK A01 T00860055  RH  082%=      5-min Rain = 0
KREE 060430Z 15004KT 09/06 A302 RMK A01 T00860055  RH  082%=      5-min Rain = 0
KREE 060435Z 14003KT 09/06 A302 RMK A01 T00860056  RH  083%=      5-min Rain = 0
KREE 060440Z 14002KT 09/06 A302 RMK A01 T00860057  RH  083%=      5-min Rain = 0
KREE 060445Z 15002KT 09/06 A302 RMK A01 T00850056  RH  083%=      5-min Rain = 0
KREE 060450Z 15002KT 09/06 A302 RMK A01 T00850057  RH  084%=      5-min Rain = 0
KREE 060455Z 15002KT 08/06 A302 RMK A01 T00840057  RH  084%=      5-min Rain = 0
KREE 060500Z 15002KT 09/06 A302 RMK A01 T00850059  RH  085%=      5-min Rain = 0
KREE 060505Z 16002KT 09/06 A302 RMK A01 T00850058  RH  084%=      5-min Rain = 0
KREE 060510Z 16003KT 08/06 A302 RMK A01 T00830057  RH  085%=      5-min Rain = 0
KREE 060515Z 17004KT 08/06 A302 RMK A01 T00830058  RH  085%=      5-min Rain = 0
KREE 060520Z 18004KT 08/05 A302 RMK A01 T00820054  RH  084%=      5-min Rain = 0
KREE 060525Z 18004KT 08/05 A302 RMK A01 T00780051  RH  085%=      5-min Rain = 0
KREE 060530Z 17005KT 08/05 A302 RMK A01 T00780053  RH  085%=      5-min Rain = 0
KREE 060535Z 18005KT 08/05 A302 RMK A01 T00770052  RH  085%=      5-min Rain = 0
KREE 060540Z 19004KT 08/05 A302 RMK A01 T00750051  RH  086%=      5-min Rain = 0
KREE 060545Z 18004KT 07/05 A302 RMK A01 T00740051  RH  086%=      5-min Rain = 0
KREE 060550Z 18004KT 08/05 A302 RMK A01 T00750052  RH  087%=      5-min Rain = 0
KREE 060555Z 18003KT 07/05 A302 RMK A01 T00740050  RH  086%=      5-min Rain = 0

Page generated in 0.0311 seconds.